Aurora — ZCDW9 — position and weather

sailwx.info

Track history (hours):
 
Tides and Currents Weather Stations Pressure Air Temp Water Temp Dewpoint Dewpoint Depression Visibility Wind Speed Wind Dir Waves Ship Positions

Aurora (Bermuda)

Last reported at 2018-Feb-17 23:00 UTC. Time now 2018-Feb-19 10:14 UTC.
Position N 12°30' W 071°42'.

Length 271 m; draft 8.3 m.

Type: Ship. MMSI: 310555970.

Wind from 180 at 28 knots

Barometer 1013.7 mb
Air temperature 24.4 ° C
Visibility: greater than 10.8 NM
Dewpoint 23.0 ° C
Water temperature 21.0 ° C

Date/timePositionNaut miles runAvg speedWind from/ knotsBaromVisibWave heightAir tempDewpointWater temp
2018-Feb-17 23:00N 12°30' W 071°42'21112.2 180 / 281013.710.8 24.423.021.0
2018-Feb-17 05:39N 11°16' W 075°04'211.5
2018-Feb-17 05:30N 11°15' W 075°06'611.2
2018-Feb-17 05:00N 11°12' W 075°10'611.0
2018-Feb-17 04:30N 11°09' W 075°15'611.8
2018-Feb-17 03:59N 11°06' W 075°20'612.0
2018-Feb-17 03:30N 11°02' W 075°25'611.9
2018-Feb-17 03:00N 10°58' W 075°29'611.9
2018-Feb-17 02:30N 10°54' W 075°33'712.4
2018-Feb-17 01:58N 10°48' W 075°35'612.9
2018-Feb-17 01:30N 10°42' W 075°36'1223.0
2018-Feb-17 01:00N 10°30' W 075°36'482.1 060 / 311009.310.8 24.922.225.0
2018-Feb-17 00:56N 10°34' W 075°37'612.8
2018-Feb-17 00:29N 10°29' W 075°38'612.7
2018-Feb-16 23:59N 10°22' W 075°37'5 8.2
2018-Feb-16 23:20N 10°20' W 075°32'410.9
2018-Feb-16 23:00N 10°24' W 075°32'1 1.5
2018-Feb-16 22:29N 10°24' W 075°32'0 0.0
2018-Feb-16 21:59N 10°24' W 075°32'0 0.0
2018-Feb-16 21:29N 10°24' W 075°32'0 0.0
2018-Feb-16 20:56N 10°24' W 075°32'0 0.0
2018-Feb-16 20:23N 10°24' W 075°32'0 0.0
2018-Feb-16 19:50N 10°24' W 075°32'0 0.0
2018-Feb-16 19:29N 10°24' W 075°32'0 0.0
2018-Feb-16 18:50N 10°24' W 075°32'0 0.0
2018-Feb-16 18:29N 10°24' W 075°32'0 0.0
2018-Feb-16 17:59N 10°24' W 075°32'0 0.0
2018-Feb-16 17:14N 10°24' W 075°32'0 0.0
2018-Feb-16 16:56N 10°24' W 075°32'0 0.0
2018-Feb-16 16:20N 10°24' W 075°32'0 0.0
2018-Feb-16 15:29N 10°24' W 075°32'0 0.0
2018-Feb-16 14:56N 10°24' W 075°32'0 0.0
2018-Feb-16 14:20N 10°24' W 075°32'0 0.0
2018-Feb-16 13:59N 10°24' W 075°32'1 1.7
2018-Feb-16 13:30N 10°24' W 075°32'10 8.7
2018-Feb-16 12:21N 10°18' W 075°41'718.8
2018-Feb-16 11:58N 10°17' W 075°48'918.2
2018-Feb-16 11:29N 10°16' W 075°57'19416.9
2018-Feb-16 00:00N 09°48' W 079°12'4324.3 120 / 251011.7 26.123.426.0
2018-Feb-15 22:14N 09°31' W 079°52'418.3
2018-Feb-15 22:00N 09°28' W 079°55'612.7
2018-Feb-15 21:30N 09°21' W 079°55'3 6.9
2018-Feb-15 21:00N 09°18' W 079°55'1 2.3
2018-Feb-15 20:30N 09°17' W 079°55'0 0.3
2018-Feb-15 20:00N 09°16' W 079°55'0 0.4
2018-Feb-15 19:30N 09°16' W 079°55'0 0.7
2018-Feb-15 19:00N 09°16' W 079°55'2 3.9
2018-Feb-15 18:30N 09°14' W 079°55'36812.5
2018-Feb-14 13:00N 03°06' W 080°06'38610.7 010 / 101010.710.8 25.824.025.0
2018-Feb-13 01:00S 03°12' W 081°24'7913.2 220 / 361010.510.8 25.723.926.0
2018-Feb-12 19:00S 04°30' W 081°36'10414.8 190 / 261010.310.8 26.324.925.0
2018-Feb-12 12:00S 06°12' W 081°18'22614.1 120 / 201011.710.8 22.122.122.0
2018-Feb-11 20:00S 09°24' W 079°18'363 8.1 140 / 271009.810.8 23.323.022.0
2018-Feb-09 23:00S 14°42' W 076°18'39316.4 150 / 341009.810.8 22.021.220.0
2018-Feb-08 23:00S 18°18' W 070°36'36 2.6 130 / 171010.710.8 21.920.021.0
2018-Feb-08 09:00S 18°54' W 070°30'   170 / 211011.2 19.219.020.0
Track history (hours):
 
Tides and Currents Weather Stations Pressure Air Temp Water Temp Dewpoint Dewpoint Depression Visibility Wind Speed Wind Dir Waves Ship Positions

Aurora (Bermuda)

Last reported at 2018-Feb-17 23:00 UTC. Time now 2018-Feb-19 10:14 UTC.
Position N 12°30' W 071°42'.

Length 271 m; draft 8.3 m.

Type: Ship. MMSI: 310555970.

Wind from 180 at 28 knots

Barometer 1013.7 mb
Air temperature 24.4 ° C
Visibility: greater than 10.8 NM
Dewpoint 23.0 ° C
Water temperature 21.0 ° C

Date/timePositionNaut miles runAvg speedWind from/ knotsBaromVisibWave heightAir tempDewpointWater temp
2018-Feb-17 23:00N 12°30' W 071°42'21112.2 180 / 281013.710.8 24.423.021.0
2018-Feb-17 05:39N 11°16' W 075°04'211.5
2018-Feb-17 05:30N 11°15' W 075°06'611.2
2018-Feb-17 05:00N 11°12' W 075°10'611.0
2018-Feb-17 04:30N 11°09' W 075°15'611.8
2018-Feb-17 03:59N 11°06' W 075°20'612.0
2018-Feb-17 03:30N 11°02' W 075°25'611.9
2018-Feb-17 03:00N 10°58' W 075°29'611.9
2018-Feb-17 02:30N 10°54' W 075°33'712.4
2018-Feb-17 01:58N 10°48' W 075°35'612.9
2018-Feb-17 01:30N 10°42' W 075°36'1223.0
2018-Feb-17 01:00N 10°30' W 075°36'482.1 060 / 311009.310.8 24.922.225.0
2018-Feb-17 00:56N 10°34' W 075°37'612.8
2018-Feb-17 00:29N 10°29' W 075°38'612.7
2018-Feb-16 23:59N 10°22' W 075°37'5 8.2
2018-Feb-16 23:20N 10°20' W 075°32'410.9
2018-Feb-16 23:00N 10°24' W 075°32'1 1.5
2018-Feb-16 22:29N 10°24' W 075°32'0 0.0
2018-Feb-16 21:59N 10°24' W 075°32'0 0.0
2018-Feb-16 21:29N 10°24' W 075°32'0 0.0
2018-Feb-16 20:56N 10°24' W 075°32'0 0.0
2018-Feb-16 20:23N 10°24' W 075°32'0 0.0
2018-Feb-16 19:50N 10°24' W 075°32'0 0.0
2018-Feb-16 19:29N 10°24' W 075°32'0 0.0
2018-Feb-16 18:50N 10°24' W 075°32'0 0.0
2018-Feb-16 18:29N 10°24' W 075°32'0 0.0
2018-Feb-16 17:59N 10°24' W 075°32'0 0.0
2018-Feb-16 17:14N 10°24' W 075°32'0 0.0
2018-Feb-16 16:56N 10°24' W 075°32'0 0.0
2018-Feb-16 16:20N 10°24' W 075°32'0 0.0
2018-Feb-16 15:29N 10°24' W 075°32'0 0.0
2018-Feb-16 14:56N 10°24' W 075°32'0 0.0
2018-Feb-16 14:20N 10°24' W 075°32'0 0.0
2018-Feb-16 13:59N 10°24' W 075°32'1 1.7
2018-Feb-16 13:30N 10°24' W 075°32'10 8.7
2018-Feb-16 12:21N 10°18' W 075°41'718.8
2018-Feb-16 11:58N 10°17' W 075°48'918.2
2018-Feb-16 11:29N 10°16' W 075°57'19416.9
2018-Feb-16 00:00N 09°48' W 079°12'4324.3 120 / 251011.7 26.123.426.0
2018-Feb-15 22:14N 09°31' W 079°52'418.3
2018-Feb-15 22:00N 09°28' W 079°55'612.7
2018-Feb-15 21:30N 09°21' W 079°55'3 6.9
2018-Feb-15 21:00N 09°18' W 079°55'1 2.3
2018-Feb-15 20:30N 09°17' W 079°55'0 0.3
2018-Feb-15 20:00N 09°16' W 079°55'0 0.4
2018-Feb-15 19:30N 09°16' W 079°55'0 0.7
2018-Feb-15 19:00N 09°16' W 079°55'2 3.9
2018-Feb-15 18:30N 09°14' W 079°55'36812.5
2018-Feb-14 13:00N 03°06' W 080°06'38610.7 010 / 101010.710.8 25.824.025.0
2018-Feb-13 01:00S 03°12' W 081°24'7913.2 220 / 361010.510.8 25.723.926.0
2018-Feb-12 19:00S 04°30' W 081°36'10414.8 190 / 261010.310.8 26.324.925.0
2018-Feb-12 12:00S 06°12' W 081°18'22614.1 120 / 201011.710.8 22.122.122.0
2018-Feb-11 20:00S 09°24' W 079°18'363 8.1 140 / 271009.810.8 23.323.022.0
2018-Feb-09 23:00S 14°42' W 076°18'39316.4 150 / 341009.810.8 22.021.220.0
2018-Feb-08 23:00S 18°18' W 070°36'36 2.6 130 / 171010.710.8 21.920.021.0
2018-Feb-08 09:00S 18°54' W 070°30'   170 / 211011.2 19.219.020.0

Dump ship's entire track history